Time;durP1;ratioP1;P1;durP2;ratioP2;P2;SDS_P1;SDS_P2;PMS_P1;PMS_P2;Temp;Humidity;BMP_temperature;BMP_pressure;BME280_temperature;BME280_humidity;BME280_pressure;Samples;Min_cycle;Max_cycle;Signal;HPM_P1;HPM_P2
2023/08/22 00:02:27;;;;;;;12.73;11.73;;;22.70;99.90;;;;;;5031479;28;20192;-78
2023/08/22 00:04:54;;;;;;;13.23;11.93;;;22.70;99.90;;;;;;5032107;28;20238;-78
2023/08/22 00:07:21;;;;;;;12.30;11.40;;;22.70;99.90;;;;;;5026043;28;20192;-78
2023/08/22 00:09:49;;;;;;;12.50;11.43;;;22.70;99.90;;;;;;5026296;28;20263;-78
2023/08/22 00:12:15;;;;;;;12.77;11.47;;;22.60;99.90;;;;;;5034767;28;20231;-78
2023/08/22 00:14:42;;;;;;;11.77;10.83;;;22.60;99.90;;;;;;5027569;28;20267;-77
2023/08/22 00:17:10;;;;;;;12.03;11.03;;;22.60;99.90;;;;;;5025933;28;20193;-77
2023/08/22 00:19:37;;;;;;;11.70;10.80;;;22.60;99.90;;;;;;5035823;28;20196;-77
2023/08/22 00:22:04;;;;;;;12.13;11.13;;;22.60;99.90;;;;;;5033626;28;20648;-77
2023/08/22 00:24:32;;;;;;;12.13;11.13;;;22.60;99.90;;;;;;5029107;28;20709;-77
2023/08/22 00:27:00;;;;;;;12.40;11.30;;;22.50;99.90;;;;;;5027531;28;20196;-76
2023/08/22 00:29:27;;;;;;;13.47;12.30;;;22.50;99.90;;;;;;5025924;28;20215;-76
2023/08/22 00:31:54;;;;;;;13.10;11.97;;;22.50;99.90;;;;;;5034227;28;20254;-78
2023/08/22 00:34:21;;;;;;;12.93;11.87;;;22.40;99.90;;;;;;5025882;28;20227;-77
2023/08/22 00:36:48;;;;;;;12.17;11.20;;;22.40;99.90;;;;;;5028559;28;20192;-77
2023/08/22 00:39:15;;;;;;;13.10;12.00;;;22.40;99.90;;;;;;5032682;28;20208;-77
2023/08/22 00:41:42;;;;;;;12.60;11.60;;;22.40;99.90;;;;;;5032471;28;20200;-77
2023/08/22 00:44:10;;;;;;;12.80;11.80;;;22.40;99.90;;;;;;5025422;28;20278;-76
2023/08/22 00:46:39;;;;;;;12.40;11.40;;;22.30;99.90;;;;;;5033564;28;20674;-77
2023/08/22 00:49:08;;;;;;;12.60;11.40;;;22.40;99.90;;;;;;5029538;28;20215;-77
2023/08/22 00:51:36;;;;;;;12.80;11.80;;;22.40;99.90;;;;;;5033699;28;20211;-77
2023/08/22 00:54:03;;;;;;;13.10;11.90;;;22.30;99.90;;;;;;5025306;28;20224;-77
2023/08/22 00:56:30;;;;;;;13.00;11.90;;;22.30;99.90;;;;;;5029651;28;20228;-77
2023/08/22 00:58:59;;;;;;;12.97;11.87;;;22.30;99.90;;;;;;5039247;28;20192;-77
2023/08/22 01:01:28;;;;;;;13.67;12.57;;;22.30;99.90;;;;;;5037941;28;20192;-77
2023/08/22 01:03:55;;;;;;;12.57;11.50;;;22.20;99.90;;;;;;5029267;28;20216;-77
2023/08/22 01:06:28;;;;;;;12.77;11.77;;;22.20;99.90;;;;;;5030936;28;20585;-77
2023/08/22 01:09:02;;;;;;;13.27;12.27;;;22.20;99.90;;;;;;5027496;28;20550;-77
2023/08/22 01:11:34;;;;;;;13.50;12.37;;;22.20;99.90;;;;;;5024597;28;20204;-77
2023/08/22 01:14:06;;;;;;;12.70;11.67;;;22.10;99.90;;;;;;5026371;28;20270;-77
2023/08/22 01:16:35;;;;;;;13.43;12.23;;;22.10;99.90;;;;;;5033168;28;20261;-77
2023/08/22 01:19:04;;;;;;;13.90;12.73;;;22.00;99.90;;;;;;5034794;28;20200;-76
2023/08/22 01:21:35;;;;;;;14.07;12.70;;;22.00;99.90;;;;;;5033657;28;20196;-77
2023/08/22 01:24:06;;;;;;;13.67;12.37;;;21.90;99.90;;;;;;5028343;28;20254;-77
2023/08/22 01:26:34;;;;;;;13.47;12.40;;;21.90;99.90;;;;;;5026260;28;20670;-77
2023/08/22 01:29:08;;;;;;;13.73;12.40;;;21.90;99.90;;;;;;5049561;28;20199;-76
2023/08/22 01:31:46;;;;;;;13.53;12.43;;;21.90;99.90;;;;;;5034950;28;20199;-77
2023/08/22 01:34:20;;;;;;;13.80;12.70;;;21.90;99.90;;;;;;5032622;28;20227;-77
2023/08/22 01:36:48;;;;;;;14.57;13.17;;;21.80;99.90;;;;;;5032869;28;20200;-77
2023/08/22 01:39:21;;;;;;;13.70;12.50;;;21.80;99.90;;;;;;5025837;28;20681;-77
2023/08/22 01:41:49;;;;;;;13.63;12.53;;;21.80;99.90;;;;;;5029038;28;20602;-78
2023/08/22 01:44:16;;;;;;;13.83;12.80;;;21.80;99.90;;;;;;5030174;28;20568;-77
2023/08/22 01:46:43;;;;;;;12.67;11.77;;;21.70;99.90;;;;;;5032697;28;20200;-77
2023/08/22 01:49:09;;;;;;;13.47;12.37;;;21.70;99.90;;;;;;5025617;28;20200;-77
2023/08/22 01:51:36;;;;;;;14.60;13.10;;;21.70;99.90;;;;;;5028579;28;20684;-77
2023/08/22 01:54:04;;;;;;;13.03;12.03;;;21.70;99.90;;;;;;5024531;28;20228;-77
2023/08/22 01:56:32;;;;;;;12.90;11.80;;;21.70;99.90;;;;;;5029270;28;20243;-77
2023/08/22 01:58:59;;;;;;;13.37;12.27;;;21.70;99.90;;;;;;5030285;28;20246;-77
2023/08/22 02:01:28;;;;;;;13.67;12.57;;;21.70;99.90;;;;;;5029059;28;20205;-77
2023/08/22 02:03:55;;;;;;;14.57;13.47;;;21.70;99.90;;;;;;5027815;28;20223;-77
2023/08/22 02:06:22;;;;;;;13.40;12.40;;;21.70;99.90;;;;;;5031775;28;20212;-77
2023/08/22 02:08:50;;;;;;;13.30;12.30;;;21.70;99.90;;;;;;5028332;28;20552;-77
2023/08/22 02:11:18;;;;;;;13.00;12.00;;;21.70;99.90;;;;;;5032498;28;20223;-76
2023/08/22 02:13:46;;;;;;;13.30;12.23;;;21.70;99.90;;;;;;5024287;28;20240;-77
2023/08/22 02:16:13;;;;;;;12.93;11.97;;;21.70;99.90;;;;;;5032129;28;20231;-77
2023/08/22 02:18:40;;;;;;;12.73;11.73;;;21.70;99.90;;;;;;5035595;28;20250;-76
2023/08/22 02:21:07;;;;;;;13.63;12.60;;;21.60;99.90;;;;;;5032987;28;20215;-77
2023/08/22 02:23:35;;;;;;;13.13;12.03;;;21.60;99.90;;;;;;5025836;28;20745;-77
2023/08/22 02:26:02;;;;;;;13.77;12.67;;;21.60;99.90;;;;;;5027944;28;20228;-77
2023/08/22 02:28:29;;;;;;;13.20;12.20;;;21.60;99.90;;;;;;5024196;28;20202;-76
2023/08/22 02:30:57;;;;;;;13.23;12.20;;;21.50;99.90;;;;;;5031973;28;20265;-77
2023/08/22 02:33:24;;;;;;;13.50;12.53;;;21.50;99.90;;;;;;5031813;28;20219;-77
2023/08/22 02:35:51;;;;;;;14.27;12.97;;;21.40;99.90;;;;;;5027484;28;20668;-76
2023/08/22 02:38:19;;;;;;;13.83;12.63;;;21.40;99.90;;;;;;5023797;28;20248;-77
2023/08/22 02:40:46;;;;;;;13.20;12.20;;;21.40;99.90;;;;;;5031173;28;20200;-77
2023/08/22 02:43:14;;;;;;;13.47;12.30;;;21.40;99.90;;;;;;5028053;28;20211;-77
2023/08/22 02:45:42;;;;;;;13.27;12.17;;;21.30;99.90;;;;;;5041079;28;20211;-77
2023/08/22 02:48:10;;;;;;;12.97;11.97;;;21.30;99.90;;;;;;5033205;28;20199;-77
2023/08/22 02:50:37;;;;;;;12.77;11.80;;;21.30;99.90;;;;;;5031914;28;20199;-78
2023/08/22 02:53:04;;;;;;;13.43;12.37;;;21.30;99.90;;;;;;5032730;28;20219;-77
2023/08/22 02:55:32;;;;;;;13.97;12.70;;;21.30;99.90;;;;;;5036661;28;20237;-76
2023/08/22 02:57:59;;;;;;;12.87;11.90;;;21.30;99.90;;;;;;5032575;28;20199;-78
2023/08/22 03:00:26;;;;;;;14.70;13.50;;;21.30;99.90;;;;;;5022299;28;20218;-77
2023/08/22 03:02:52;;;;;;;13.63;12.63;;;21.30;99.90;;;;;;5031918;28;20659;-79
2023/08/22 03:05:22;;;;;;;13.67;12.50;;;21.30;99.90;;;;;;5034315;28;20609;-79
2023/08/22 03:07:48;;;;;;;13.07;12.07;;;21.20;99.90;;;;;;5039569;28;20190;-79
2023/08/22 03:10:15;;;;;;;14.27;13.17;;;21.20;99.90;;;;;;5036786;28;20204;-79
2023/08/22 03:12:44;;;;;;;13.70;12.70;;;21.20;99.90;;;;;;5036396;28;20932;-79
2023/08/22 03:15:11;;;;;;;14.37;13.27;;;21.20;99.90;;;;;;5021356;28;20691;-79
2023/08/22 03:17:41;;;;;;;14.70;13.60;;;21.20;99.90;;;;;;5025895;28;20386;-78
2023/08/22 03:20:09;;;;;;;13.57;12.50;;;21.20;99.90;;;;;;5036475;28;20207;-78
2023/08/22 03:22:37;;;;;;;13.77;12.77;;;21.20;99.90;;;;;;5027542;28;20198;-79
2023/08/22 03:25:06;;;;;;;14.27;13.07;;;21.20;99.90;;;;;;5033282;28;20208;-78
2023/08/22 03:27:34;;;;;;;14.67;13.57;;;21.20;99.90;;;;;;5049164;28;20191;-80
2023/08/22 03:30:02;;;;;;;14.37;13.27;;;21.20;99.90;;;;;;5045267;28;20232;-79
2023/08/22 03:32:33;;;;;;;14.10;13.00;;;21.20;99.90;;;;;;5046134;28;20645;-79
2023/08/22 03:35:03;;;;;;;13.73;12.63;;;21.20;99.90;;;;;;5045721;28;20226;-80
2023/08/22 03:37:31;;;;;;;14.10;12.87;;;21.20;99.90;;;;;;5044799;28;20674;-79
2023/08/22 03:39:59;;;;;;;14.80;13.60;;;21.20;99.90;;;;;;5044638;28;20618;-80
2023/08/22 03:42:26;;;;;;;13.77;12.57;;;21.20;99.90;;;;;;5043987;28;20211;-80
2023/08/22 03:44:57;;;;;;;13.73;12.80;;;21.20;99.90;;;;;;5048557;28;20218;-80
2023/08/22 03:47:24;;;;;;;15.10;13.90;;;21.20;99.90;;;;;;5042624;28;20211;-78
2023/08/22 03:49:50;;;;;;;14.43;13.33;;;21.20;99.90;;;;;;5033144;28;20227;-77
2023/08/22 03:52:18;;;;;;;13.47;12.47;;;21.20;99.90;;;;;;5030315;28;20227;-78
2023/08/22 03:54:44;;;;;;;13.77;12.77;;;21.20;99.90;;;;;;5034693;28;20238;-78
2023/08/22 03:57:13;;;;;;;14.20;13.20;;;21.10;99.90;;;;;;5040532;28;20204;-79
2023/08/22 03:59:39;;;;;;;14.47;13.40;;;21.10;99.90;;;;;;5025628;28;20224;-80
2023/08/22 04:02:06;;;;;;;14.20;13.20;;;21.10;99.90;;;;;;5040258;28;20196;-79
2023/08/22 04:04:33;;;;;;;13.67;12.67;;;21.10;99.90;;;;;;5022592;28;20220;-78
2023/08/22 04:07:00;;;;;;;14.33;13.10;;;21.00;99.90;;;;;;5027676;28;20250;-79
2023/08/22 04:09:27;;;;;;;15.77;14.57;;;21.00;99.90;;;;;;5025100;28;20287;-82
2023/08/22 04:11:54;;;;;;;15.17;14.17;;;21.00;99.90;;;;;;5030161;28;20196;-80
2023/08/22 04:14:22;;;;;;;15.57;14.47;;;21.00;99.90;;;;;;5032227;28;20273;-79
2023/08/22 04:16:49;;;;;;;15.20;14.10;;;21.00;99.90;;;;;;5028882;28;20208;-80
2023/08/22 04:19:17;;;;;;;15.63;14.30;;;20.90;99.90;;;;;;5029740;28;20203;-82
2023/08/22 04:21:43;;;;;;;15.07;13.87;;;20.90;99.90;;;;;;5037303;28;20200;-79
2023/08/22 04:24:11;;;;;;;15.20;13.90;;;20.90;99.90;;;;;;5037071;28;20220;-79
2023/08/22 04:26:38;;;;;;;15.27;14.07;;;20.90;99.90;;;;;;5038283;28;20219;-79
2023/08/22 04:29:06;;;;;;;15.03;13.93;;;20.90;99.90;;;;;;5035809;28;20192;-79
2023/08/22 04:31:34;;;;;;;14.83;13.63;;;20.90;99.90;;;;;;5034656;28;20200;-79
2023/08/22 04:34:01;;;;;;;15.13;14.03;;;20.80;99.90;;;;;;5031182;28;20623;-80
2023/08/22 04:36:29;;;;;;;15.27;13.97;;;20.80;99.90;;;;;;5030677;28;20287;-79
2023/08/22 04:38:56;;;;;;;15.77;14.57;;;20.80;99.90;;;;;;5031179;28;20203;-79
2023/08/22 04:41:24;;;;;;;15.13;13.93;;;20.80;99.90;;;;;;5027979;28;20235;-78
2023/08/22 04:44:11;;;;;;;14.93;13.83;;;20.80;99.90;;;;;;5028843;28;20256;-79
2023/08/22 04:46:39;;;;;;;15.30;14.07;;;20.80;99.90;;;;;;5042978;28;20203;-78
2023/08/22 04:49:06;;;;;;;15.10;14.00;;;20.80;99.90;;;;;;5036594;28;20201;-80
2023/08/22 04:51:33;;;;;;;15.60;14.40;;;20.80;99.90;;;;;;5027319;28;20200;-78
2023/08/22 04:54:01;;;;;;;15.40;14.30;;;20.80;99.90;;;;;;5029097;28;20223;-80
2023/08/22 04:56:31;;;;;;;15.20;14.20;;;20.80;99.90;;;;;;5031761;28;20200;-84
2023/08/22 04:58:58;;;;;;;16.13;14.93;;;20.90;99.90;;;;;;5032747;28;20200;-81
2023/08/22 05:01:26;;;;;;;15.27;14.10;;;20.90;99.90;;;;;;5032564;28;20220;-79
2023/08/22 05:03:55;;;;;;;15.53;14.40;;;20.90;99.90;;;;;;5031511;28;20215;-80
2023/08/22 05:06:22;;;;;;;15.70;14.53;;;20.90;99.90;;;;;;5031074;28;20192;-78
2023/08/22 05:08:49;;;;;;;15.07;13.97;;;21.00;99.90;;;;;;5032129;28;20210;-78
2023/08/22 05:11:15;;;;;;;15.33;14.23;;;21.00;99.90;;;;;;5032022;28;20188;-79
2023/08/22 05:13:45;;;;;;;15.57;14.47;;;21.10;99.90;;;;;;5030819;28;20426;-85
2023/08/22 05:16:12;;;;;;;16.23;15.03;;;21.20;99.90;;;;;;5028882;28;20188;-79
2023/08/22 05:18:39;;;;;;;15.53;14.33;;;21.20;99.90;;;;;;5032545;28;20606;-76
2023/08/22 05:21:07;;;;;;;16.17;14.97;;;21.20;99.90;;;;;;5028999;28;20193;-77
2023/08/22 05:23:35;;;;;;;16.07;14.87;;;21.30;99.90;;;;;;5028972;28;20219;-78
2023/08/22 05:26:02;;;;;;;15.83;14.63;;;21.30;99.90;;;;;;5030746;28;20243;-77
2023/08/22 05:28:29;;;;;;;15.73;14.53;;;21.30;99.90;;;;;;5030521;28;20566;-77
2023/08/22 05:30:56;;;;;;;15.47;14.27;;;21.40;99.90;;;;;;5026294;28;20202;-77
2023/08/22 05:33:24;;;;;;;15.90;14.70;;;21.50;99.90;;;;;;5029739;28;20211;-77
2023/08/22 05:35:51;;;;;;;15.20;14.10;;;21.60;99.90;;;;;;5030143;28;20222;-77
2023/08/22 05:38:19;;;;;;;15.23;14.00;;;21.80;99.90;;;;;;5030246;28;20223;-77
2023/08/22 05:40:46;;;;;;;15.07;13.83;;;21.90;99.90;;;;;;5024793;28;20195;-77
2023/08/22 05:43:14;;;;;;;15.80;14.60;;;22.10;99.90;;;;;;5027621;28;20277;-77
2023/08/22 05:45:41;;;;;;;14.40;13.20;;;22.20;99.90;;;;;;5032450;28;20223;-77
2023/08/22 05:48:08;;;;;;;15.70;14.50;;;22.30;99.90;;;;;;5029649;28;20192;-77
2023/08/22 05:50:35;;;;;;;15.37;14.17;;;22.40;99.90;;;;;;5029186;28;20196;-78
2023/08/22 05:53:01;;;;;;;13.20;12.10;;;22.60;99.90;;;;;;5042264;28;20703;-78
2023/08/22 05:55:31;;;;;;;13.90;12.77;;;22.70;99.90;;;;;;5032099;28;20255;-78
2023/08/22 05:57:58;;;;;;;12.60;11.60;;;22.80;99.90;;;;;;5027814;28;20287;-78
2023/08/22 06:00:25;;;;;;;14.63;13.43;;;22.80;99.90;;;;;;5030800;28;20202;-77
2023/08/22 06:02:56;;;;;;;14.37;13.37;;;22.90;99.90;;;;;;5029194;28;20216;-78
2023/08/22 06:05:25;;;;;;;15.50;14.17;;;22.90;99.90;;;;;;5029381;28;20207;-78
2023/08/22 06:07:53;;;;;;;15.17;13.87;;;22.90;99.90;;;;;;5031826;28;20200;-78
2023/08/22 06:10:22;;;;;;;14.80;13.60;;;22.90;99.90;;;;;;5025745;28;20239;-78
2023/08/22 06:12:51;;;;;;;14.83;13.63;;;23.00;99.90;;;;;;5027577;28;20295;-78
2023/08/22 06:15:19;;;;;;;14.27;12.97;;;23.00;99.90;;;;;;5029224;28;20772;-78
2023/08/22 06:17:45;;;;;;;13.80;12.80;;;23.10;99.90;;;;;;5024543;28;20290;-78
2023/08/22 06:20:12;;;;;;;13.53;12.53;;;23.10;99.90;;;;;;5031106;28;20200;-78
2023/08/22 06:22:39;;;;;;;15.90;14.70;;;23.20;99.90;;;;;;5027705;28;20217;-78
2023/08/22 06:25:07;;;;;;;14.97;13.73;;;23.20;99.90;;;;;;5026875;28;20266;-78
2023/08/22 06:27:34;;;;;;;14.93;13.83;;;23.40;99.90;;;;;;5025698;28;20203;-78
2023/08/22 06:30:03;;;;;;;14.37;13.27;;;23.50;99.90;;;;;;5033413;28;20679;-78
2023/08/22 06:32:33;;;;;;;15.20;13.90;;;23.70;99.90;;;;;;5025157;28;20207;-78
2023/08/22 06:35:00;;;;;;;13.77;12.77;;;23.80;99.90;;;;;;5028187;28;20222;-78
2023/08/22 06:37:27;;;;;;;14.73;13.57;;;23.90;99.90;;;;;;5024896;28;20223;-78
2023/08/22 06:39:54;;;;;;;13.00;12.00;;;24.00;99.90;;;;;;5024806;28;20660;-77
2023/08/22 06:42:21;;;;;;;13.03;12.03;;;24.10;99.90;;;;;;5032872;28;20204;-78
2023/08/22 06:44:52;;;;;;;13.83;12.73;;;24.10;99.90;;;;;;5032884;28;20219;-78
2023/08/22 06:47:20;;;;;;;12.53;11.53;;;24.10;99.90;;;;;;5033449;28;20227;-77
2023/08/22 06:49:47;;;;;;;8.77;7.97;;;24.20;99.90;;;;;;5034741;28;20199;-78
2023/08/22 06:52:14;;;;;;;9.50;8.57;;;24.30;99.90;;;;;;5041379;28;20235;-78
2023/08/22 06:54:41;;;;;;;9.03;8.10;;;24.40;99.90;;;;;;5024314;28;20293;-78
2023/08/22 06:57:08;;;;;;;8.67;7.63;;;24.50;99.90;;;;;;5025947;28;20214;-78
2023/08/22 06:59:34;;;;;;;8.03;7.30;;;24.50;99.90;;;;;;5026042;28;20196;-77
2023/08/22 07:02:01;;;;;;;8.33;7.43;;;24.60;99.90;;;;;;5035992;28;20210;-77
2023/08/22 07:04:31;;;;;;;8.40;7.60;;;24.70;99.90;;;;;;5032951;28;20219;-78
2023/08/22 07:06:58;;;;;;;8.40;7.60;;;24.70;99.90;;;;;;5026704;28;20199;-78
2023/08/22 07:09:26;;;;;;;9.93;8.93;;;24.80;99.90;;;;;;5028354;28;20204;-78
2023/08/22 07:11:53;;;;;;;11.13;10.20;;;24.90;99.90;;;;;;5035712;28;20251;-78
2023/08/22 07:14:19;;;;;;;10.20;8.63;;;25.00;99.90;;;;;;5026571;28;20223;-78
2023/08/22 07:16:46;;;;;;;10.70;9.70;;;25.00;99.90;;;;;;5029035;28;20208;-77
2023/08/22 07:19:13;;;;;;;11.47;10.53;;;25.10;99.90;;;;;;5024450;28;20200;-78
2023/08/22 07:21:41;;;;;;;10.43;9.53;;;25.20;99.90;;;;;;5026009;28;20832;-78
2023/08/22 07:24:08;;;;;;;8.80;7.90;;;25.30;99.90;;;;;;5029627;28;20208;-78
2023/08/22 07:26:34;;;;;;;13.23;12.23;;;25.60;99.90;;;;;;5038524;28;20204;-79
2023/08/22 07:29:01;;;;;;;9.77;8.87;;;25.90;99.90;;;;;;5037966;28;20196;-78
2023/08/22 07:31:28;;;;;;;10.43;9.20;;;26.40;99.90;;;;;;5032321;28;20199;-78
2023/08/22 07:33:55;;;;;;;12.43;11.20;;;26.90;99.90;;;;;;5029376;28;20641;-78
2023/08/22 07:36:22;;;;;;;9.53;8.73;;;27.50;99.90;;;;;;5030150;28;20729;-78
2023/08/22 07:38:50;;;;;;;9.30;8.40;;;28.00;99.90;;;;;;5029065;28;20200;-77
2023/08/22 07:41:17;;;;;;;12.23;9.10;;;28.50;99.90;;;;;;5030854;28;20196;-78
2023/08/22 07:43:44;;;;;;;9.17;7.77;;;29.00;99.90;;;;;;5033370;28;20801;-78
2023/08/22 07:46:11;;;;;;;10.03;9.00;;;29.40;99.90;;;;;;5030831;28;20629;-78
2023/08/22 07:48:37;;;;;;;8.83;7.57;;;29.90;99.90;;;;;;5026402;28;20201;-78
2023/08/22 07:51:04;;;;;;;11.70;10.70;;;30.20;99.90;;;;;;5040420;28;20658;-78
2023/08/22 07:53:32;;;;;;;14.20;12.97;;;30.50;99.90;;;;;;5028142;28;20224;-78
2023/08/22 07:56:00;;;;;;;8.30;7.10;;;30.80;99.90;;;;;;5031390;28;20220;-78
2023/08/22 07:58:27;;;;;;;10.90;10.10;;;31.10;99.90;;;;;;5038132;28;20223;-78
2023/08/22 08:00:53;;;;;;;11.80;10.30;;;31.40;99.90;;;;;;5030013;28;20675;-78
2023/08/22 08:03:20;;;;;;;11.60;10.70;;;31.60;99.90;;;;;;5038011;28;20714;-78
2023/08/22 08:05:47;;;;;;;11.60;10.70;;;31.80;99.90;;;;;;5033765;28;20200;-78
2023/08/22 08:08:14;;;;;;;11.33;10.40;;;32.00;99.90;;;;;;5048231;28;20250;-79
2023/08/22 08:10:41;;;;;;;12.13;11.13;;;31.90;99.90;;;;;;5031403;28;20200;-78
2023/08/22 08:13:09;;;;;;;12.30;11.30;;;32.20;99.90;;;;;;5037492;28;20228;-78
2023/08/22 08:15:36;;;;;;;11.07;10.23;;;32.20;99.90;;;;;;5028558;28;20299;-79
2023/08/22 08:18:03;;;;;;;11.80;10.70;;;32.30;99.90;;;;;;5034814;28;20658;-79
2023/08/22 08:20:30;;;;;;;11.50;10.60;;;32.50;99.90;;;;;;5031981;28;20200;-78
2023/08/22 08:22:57;;;;;;;11.97;11.10;;;32.30;99.90;;;;;;5034944;28;20196;-78
2023/08/22 08:25:23;;;;;;;8.50;6.43;;;32.40;99.90;;;;;;5031712;28;20204;-78
2023/08/22 08:27:50;;;;;;;9.18;8.27;;;32.70;99.90;;;;;;5028582;28;20612;-78
2023/08/22 08:30:18;;;;;;;9.15;8.30;;;32.60;99.90;;;;;;5031129;28;20609;-79
2023/08/22 08:32:45;;;;;;;6.88;5.78;;;32.70;99.90;;;;;;5031724;28;20208;-79
2023/08/22 08:35:12;;;;;;;6.63;6.03;;;32.90;99.90;;;;;;5035460;28;20220;-79
2023/08/22 08:37:39;;;;;;;8.27;7.35;;;33.20;99.90;;;;;;5028098;28;20199;-78
2023/08/22 08:40:08;;;;;;;7.43;5.95;;;33.00;99.90;;;;;;5039947;28;20196;-79
2023/08/22 08:42:36;;;;;;;8.15;6.05;;;32.90;99.90;;;;;;5038216;28;20258;-79
2023/08/22 08:45:04;;;;;;;6.38;5.78;;;33.10;99.90;;;;;;5029738;28;20592;-76
2023/08/22 08:47:33;;;;;;;6.68;5.70;;;33.00;99.90;;;;;;5032898;28;20196;-78
2023/08/22 08:50:01;;;;;;;6.13;5.43;;;33.30;99.90;;;;;;5030895;28;20196;-78
2023/08/22 08:52:30;;;;;;;7.13;5.00;;;33.50;99.90;;;;;;5033142;28;20199;-78
2023/08/22 08:54:58;;;;;;;5.85;4.97;;;33.60;99.90;;;;;;5028906;28;20224;-78
2023/08/22 08:57:25;;;;;;;7.43;5.22;;;33.70;99.90;;;;;;5032396;28;20204;-78
2023/08/22 08:59:52;;;;;;;6.22;5.30;;;33.70;99.90;;;;;;5035795;28;20200;-78
2023/08/22 09:02:19;;;;;;;5.70;5.13;;;33.90;99.90;;;;;;5032043;28;20200;-78
2023/08/22 09:04:49;;;;;;;7.40;5.22;;;34.10;99.90;;;;;;5029883;28;20563;-78
2023/08/22 09:07:17;;;;;;;5.63;5.03;;;34.20;99.90;;;;;;5029234;28;20192;-79
2023/08/22 09:09:44;;;;;;;7.50;5.20;;;34.20;99.90;;;;;;5029896;28;20667;-78
2023/08/22 09:12:13;;;;;;;5.22;4.82;;;34.00;99.90;;;;;;5037463;28;20196;-78
2023/08/22 09:14:42;;;;;;;7.28;6.68;;;34.10;99.90;;;;;;5030488;28;20748;-79
2023/08/22 09:17:09;;;;;;;7.15;6.55;;;34.40;99.90;;;;;;5052750;28;20763;-79
2023/08/22 09:19:36;;;;;;;8.82;7.60;;;34.60;99.90;;;;;;5029654;28;20262;-77
2023/08/22 09:22:05;;;;;;;8.75;7.93;;;34.40;99.90;;;;;;5029973;28;20696;-77
2023/08/22 09:24:34;;;;;;;10.95;10.05;;;34.20;99.90;;;;;;5027735;28;20609;-77
2023/08/22 09:27:03;;;;;;;10.13;9.43;;;34.10;99.90;;;;;;5024925;28;20196;-77
2023/08/22 09:29:31;;;;;;;11.75;10.60;;;34.40;99.90;;;;;;5023651;28;20659;-77
2023/08/22 09:32:03;;;;;;;10.80;10.00;;;34.40;99.90;;;;;;5024960;28;20204;-77
2023/08/22 09:34:31;;;;;;;10.40;9.52;;;34.50;99.90;;;;;;5033046;28;20266;-77
2023/08/22 09:36:58;;;;;;;10.13;9.43;;;34.50;99.90;;;;;;5024332;28;20736;-77
2023/08/22 09:39:28;;;;;;;10.65;9.85;;;34.60;99.90;;;;;;5024993;28;20196;-77
2023/08/22 09:41:57;;;;;;;10.05;9.35;;;34.30;99.90;;;;;;5028765;28;20275;-77
2023/08/22 09:44:25;;;;;;;9.95;9.25;;;34.50;99.90;;;;;;5024847;28;20586;-77
2023/08/22 09:46:53;;;;;;;9.30;8.60;;;34.80;99.90;;;;;;5024597;28;20189;-76
2023/08/22 09:49:21;;;;;;;9.27;8.48;;;34.90;99.90;;;;;;5016232;28;20196;-77
2023/08/22 09:51:49;;;;;;;10.10;9.40;;;34.70;99.90;;;;;;5023457;28;20201;-77
2023/08/22 09:54:17;;;;;;;9.70;8.80;;;34.60;99.90;;;;;;5025812;28;20278;-77
2023/08/22 09:56:46;;;;;;;9.48;8.68;;;34.70;99.90;;;;;;5029123;28;20697;-77
2023/08/22 09:59:14;;;;;;;9.93;8.95;;;34.70;99.90;;;;;;5024048;28;20200;-76
2023/08/22 10:01:43;;;;;;;8.57;8.00;;;34.40;99.90;;;;;;5023697;28;20319;-83
2023/08/22 10:04:13;;;;;;;9.25;8.45;;;34.60;99.90;;;;;;5084655;22;20270;-82
2023/08/22 10:06:42;;;;;;;9.55;8.75;;;34.80;99.90;;;;;;5032412;28;20239;-82
2023/08/22 10:09:11;;;;;;;9.25;8.45;;;35.00;99.90;;;;;;5022679;28;20262;-81
2023/08/22 10:11:41;;;;;;;8.95;8.10;;;34.90;99.90;;;;;;5032485;28;20200;-79
2023/08/22 10:14:17;;;;;;;8.70;7.97;;;34.90;99.90;;;;;;5029621;28;20255;-83
2023/08/22 10:16:46;;;;;;;9.75;8.85;;;34.80;99.90;;;;;;5030141;28;20611;-79
2023/08/22 10:19:13;;;;;;;8.82;8.20;;;34.50;99.90;;;;;;5025562;28;20729;-82
2023/08/22 10:21:46;;;;;;;8.35;7.75;;;34.50;99.90;;;;;;5022663;28;20208;-82
2023/08/22 10:24:21;;;;;;;9.73;9.02;;;34.50;99.90;;;;;;5021092;28;20230;-78
2023/08/22 10:26:58;;;;;;;9.82;9.13;;;34.50;99.90;;;;;;5023856;28;20222;-77
2023/08/22 10:29:29;;;;;;;9.48;8.77;;;34.50;99.90;;;;;;5027233;28;20283;-77
2023/08/22 10:32:21;;;;;;;9.13;8.48;;;34.40;99.90;;;;;;5027521;28;20203;-78
2023/08/22 10:35:21;;;;;;;9.63;8.82;;;34.40;99.90;;;;;;5019002;28;20220;-77
2023/08/22 10:37:50;;;;;;;9.60;8.80;;;34.10;99.90;;;;;;5028769;28;20609;-82
2023/08/22 10:40:34;;;;;;;9.48;8.73;;;34.00;99.90;;;;;;5019238;28;20253;-83
2023/08/22 10:43:09;;;;;;;9.23;8.48;;;33.70;99.90;;;;;;5026634;28;20201;-83
2023/08/22 10:45:52;;;;;;;9.05;8.35;;;33.50;99.90;;;;;;5019345;28;20204;-83
2023/08/22 10:48:25;;;;;;;9.27;8.57;;;33.70;99.90;;;;;;5022420;28;20561;-83
2023/08/22 10:50:52;;;;;;;9.50;8.73;;;33.80;99.90;;;;;;5025185;28;20200;-83
2023/08/22 10:53:24;;;;;;;9.10;8.38;;;33.90;99.90;;;;;;5039502;28;20217;-82
2023/08/22 10:55:52;;;;;;;8.85;8.25;;;34.00;99.90;;;;;;5018529;28;20197;-83
2023/08/22 10:58:39;;;;;;;9.38;8.60;;;34.00;99.90;;;;;;5026407;28;20192;-83
2023/08/22 11:01:10;;;;;;;9.43;8.73;;;33.80;99.90;;;;;;5023369;28;20250;-83
2023/08/22 11:03:37;;;;;;;9.20;8.50;;;33.80;99.90;;;;;;5019672;28;20231;-83
2023/08/22 11:06:11;;;;;;;9.77;9.07;;;33.40;99.90;;;;;;5021304;28;20211;-85
2023/08/22 11:08:38;;;;;;;7.68;7.07;;;33.20;99.90;;;;;;5029329;28;20262;-86
2023/08/22 11:11:06;;;;;;;7.65;7.05;;;33.20;99.90;;;;;;5028448;28;20202;-86
2023/08/22 11:13:37;;;;;;;7.80;7.20;;;33.40;99.90;;;;;;5017907;28;20216;-83
2023/08/22 11:16:11;;;;;;;7.72;7.13;;;33.40;99.90;;;;;;5028580;28;20191;-85
2023/08/22 11:18:39;;;;;;;7.82;7.13;;;33.50;99.90;;;;;;5026341;28;20195;-85
2023/08/22 11:21:07;;;;;;;7.13;6.63;;;33.60;99.90;;;;;;5021203;28;20193;-84
2023/08/22 11:23:35;;;;;;;7.70;7.00;;;33.60;99.90;;;;;;5019219;28;20595;-86
2023/08/22 11:26:02;;;;;;;7.57;7.00;;;33.60;99.90;;;;;;5022398;28;20207;-85
2023/08/22 11:28:33;;;;;;;7.78;7.18;;;33.60;99.90;;;;;;5015191;28;20262;-86
2023/08/22 11:31:02;;;;;;;7.25;6.72;;;33.40;99.90;;;;;;5018305;28;20586;-84
2023/08/22 11:33:37;;;;;;;8.10;7.40;;;33.20;99.90;;;;;;5019832;28;20694;-85
2023/08/22 11:36:04;;;;;;;8.20;7.47;;;33.10;99.90;;;;;;5025000;28;20207;-85
2023/08/22 11:38:34;;;;;;;7.88;7.13;;;33.20;99.90;;;;;;5016097;28;20577;-85
2023/08/22 11:41:02;;;;;;;7.65;7.05;;;33.00;99.90;;;;;;5016275;28;20200;-86
2023/08/22 11:43:29;;;;;;;8.60;7.90;;;33.00;99.90;;;;;;5022550;28;20212;-85
2023/08/22 11:45:56;;;;;;;8.60;8.00;;;32.90;99.90;;;;;;5027697;28;20675;-85
2023/08/22 11:48:24;;;;;;;8.45;7.75;;;32.70;99.90;;;;;;5011478;28;20228;-83
2023/08/22 11:50:55;;;;;;;8.63;7.82;;;32.70;99.90;;;;;;5020842;28;20289;-83
2023/08/22 11:53:30;;;;;;;8.80;8.10;;;32.80;99.90;;;;;;5015997;28;20217;-84
2023/08/22 11:55:57;;;;;;;8.82;8.13;;;32.70;99.90;;;;;;5017406;28;20671;-84
2023/08/22 11:58:51;;;;;;;8.77;8.07;;;32.90;99.90;;;;;;5020666;28;20188;-81
2023/08/22 12:01:20;;;;;;;9.00;8.40;;;32.90;99.90;;;;;;5032862;28;20223;-83
2023/08/22 12:03:47;;;;;;;8.80;8.20;;;33.00;99.90;;;;;;5032928;28;20238;-84
2023/08/22 12:06:15;;;;;;;9.18;8.38;;;33.10;99.90;;;;;;5036171;28;20210;-83
2023/08/22 12:08:42;;;;;;;9.95;9.05;;;33.20;99.90;;;;;;5033472;28;20200;-84
2023/08/22 12:11:23;;;;;;;9.35;8.45;;;32.90;99.90;;;;;;5024403;28;20204;-85
2023/08/22 12:13:50;;;;;;;8.52;7.82;;;32.50;99.90;;;;;;5039021;28;20216;-84
2023/08/22 12:16:17;;;;;;;8.50;7.88;;;32.40;99.90;;;;;;5026320;28;20212;-84
2023/08/22 12:18:44;;;;;;;9.80;8.60;;;32.40;99.90;;;;;;5036574;28;20201;-84
2023/08/22 12:21:10;;;;;;;9.18;8.30;;;32.20;99.90;;;;;;5031533;28;20214;-83
2023/08/22 12:23:39;;;;;;;9.80;9.10;;;32.10;99.90;;;;;;5032162;28;20220;-84
2023/08/22 12:26:06;;;;;;;8.90;8.20;;;32.30;99.90;;;;;;5028209;28;20219;-84
2023/08/22 12:28:32;;;;;;;8.80;8.15;;;32.30;99.90;;;;;;5033252;28;20616;-84
2023/08/22 12:30:59;;;;;;;9.00;8.40;;;32.40;99.90;;;;;;5026677;28;20201;-82
2023/08/22 12:33:26;;;;;;;9.10;8.40;;;32.30;99.90;;;;;;5023979;28;20216;-84
2023/08/22 12:35:53;;;;;;;8.88;8.25;;;32.20;99.90;;;;;;5026484;28;20227;-83
2023/08/22 12:38:24;;;;;;;9.07;8.35;;;32.10;99.90;;;;;;5032308;28;20200;-82
2023/08/22 12:40:53;;;;;;;7.20;6.60;;;32.10;99.90;;;;;;5027824;28;20197;-84
2023/08/22 12:43:20;;;;;;;7.13;6.63;;;32.00;99.90;;;;;;5034376;28;20223;-84